createdAt,value
2023-03-18T06:19:23.123Z,65790.22
2023-03-18T06:24:29.405Z,65812.56
2023-03-18T06:29:39.026Z,65825.50
2023-03-18T06:34:52.908Z,65738.94
2023-03-18T06:39:59.913Z,65713.09
2023-03-18T06:45:07.945Z,65651.88
2023-03-18T06:50:25.669Z,65763.94
2023-03-18T06:55:31.881Z,65769.72
2023-03-18T07:00:38.966Z,65820.56
2023-03-18T07:05:47.349Z,65773.19
2023-03-18T07:10:57.425Z,65881.53
2023-03-18T07:16:06.483Z,65775.59
2023-03-18T07:21:11.632Z,65816.75
2023-03-18T07:26:18.615Z,65806.78
2023-03-18T07:31:25.653Z,65915.22
2023-03-18T07:36:30.196Z,65884.38
2023-03-18T07:41:37.808Z,66004.56
2023-03-18T07:46:45.424Z,65996.00
2023-03-18T07:51:49.872Z,66105.69
2023-03-18T07:56:54.650Z,66033.91
2023-03-18T08:02:00.372Z,66055.63
2023-03-18T08:07:04.785Z,66114.44
2023-03-18T08:12:09.953Z,66062.69
2023-03-18T08:17:15.937Z,66083.38
2023-03-18T08:22:24.213Z,66115.50
2023-03-18T08:27:28.342Z,66095.44
2023-03-18T08:32:34.197Z,66175.44
2023-03-18T08:37:38.534Z,66151.41
2023-03-18T08:42:42.531Z,66107.38
2023-03-18T08:47:48.546Z,66218.38
2023-03-18T08:52:52.567Z,66149.25
2023-03-18T08:57:56.733Z,66231.16
2023-03-18T09:03:02.875Z,66212.50
2023-03-18T09:08:07.895Z,66252.72
2023-03-18T09:13:12.675Z,66166.31
2023-03-18T09:18:19.526Z,66148.72
2023-03-18T09:23:23.842Z,66171.66
2023-03-18T09:28:28.408Z,66150.50
2023-03-18T09:33:45.666Z,66163.09
2023-03-18T09:38:50.067Z,66219.19
2023-03-18T09:44:03.488Z,66295.00
2023-03-18T09:49:31.644Z,66342.22
2023-03-18T09:54:41.388Z,66335.16
2023-03-18T09:59:48.838Z,66299.19
2023-03-18T10:04:58.166Z,66372.28
2023-03-18T10:10:08.625Z,66335.84
2023-03-18T10:15:19.278Z,66266.06
2023-03-18T10:20:35.197Z,66353.09
2023-03-18T10:25:44.996Z,66305.19
2023-03-18T10:30:57.782Z,66450.75
2023-03-18T10:36:10.418Z,66278.53
2023-03-18T10:41:18.780Z,66402.34
2023-03-18T10:46:23.694Z,66394.81
2023-03-18T10:51:35.794Z,66462.56
2023-03-18T10:56:40.372Z,66483.41
2023-03-18T11:01:50.029Z,66443.69
2023-03-18T11:06:59.613Z,66458.78
2023-03-18T11:12:05.877Z,66514.50
2023-03-18T11:17:22.126Z,66474.31
2023-03-18T11:22:29.187Z,66527.56
2023-03-18T11:27:40.648Z,66543.50
2023-03-18T11:32:56.741Z,66435.09
2023-03-18T11:38:05.642Z,66490.41
2023-03-18T11:43:20.119Z,66566.28
2023-03-18T11:48:35.788Z,66447.38
2023-03-18T11:53:52.749Z,66507.53
2023-03-18T11:59:14.056Z,66696.47
2023-03-18T12:04:38.932Z,66763.59
2023-03-18T12:09:56.974Z,66806.13
2023-03-18T12:15:06.844Z,66847.19
2023-03-18T12:20:48.252Z,67033.63
2023-03-18T12:26:02.211Z,67174.47
2023-03-18T12:31:24.022Z,66928.56
2023-03-18T12:36:39.790Z,66993.63
2023-03-18T12:42:02.568Z,67142.53
2023-03-18T12:47:10.581Z,67172.25
2023-03-18T12:52:27.538Z,66949.97
2023-03-18T12:57:42.212Z,66938.78
2023-03-18T13:02:54.271Z,67062.72
2023-03-18T13:08:27.805Z,67119.38
2023-03-18T13:13:38.445Z,67085.44
2023-03-18T13:18:46.401Z,67082.59
2023-03-18T13:24:22.042Z,67089.09
2023-03-18T13:29:36.460Z,67063.34
2023-03-18T13:35:02.581Z,66990.44
2023-03-18T13:40:16.031Z,66981.75
2023-03-18T13:45:28.057Z,66987.81
2023-03-18T13:50:35.702Z,66845.44
2023-03-18T13:55:47.702Z,66869.28
2023-03-18T14:01:28.785Z,66948.88
2023-03-18T14:06:53.923Z,66995.84
2023-03-18T14:12:05.051Z,66943.56
2023-03-18T14:17:19.518Z,66961.97
2023-03-18T14:22:27.925Z,66888.59
2023-03-18T14:27:32.078Z,66941.19
2023-03-18T14:32:41.760Z,66932.09
2023-03-18T14:38:02.694Z,66899.91
2023-03-18T14:43:11.762Z,66958.66
2023-03-18T14:48:21.769Z,67060.56
2023-03-18T14:53:32.237Z,67117.59
2023-03-18T14:58:36.504Z,67068.50
2023-03-18T15:03:44.947Z,66930.56
2023-03-18T15:08:52.634Z,66944.72
2023-03-18T15:14:00.137Z,66980.75
2023-03-18T15:19:06.940Z,66963.97
2023-03-18T15:24:17.059Z,66861.00
2023-03-18T15:29:31.529Z,66951.50
2023-03-18T15:34:39.604Z,66957.50
2023-03-18T15:39:44.141Z,66906.84
2023-03-18T15:44:56.149Z,66827.69
2023-03-18T15:50:09.643Z,66781.94
2023-03-18T15:55:29.377Z,66676.88
2023-03-18T16:00:34.809Z,66682.78
2023-03-18T16:05:40.380Z,66738.75
2023-03-18T16:10:46.878Z,66718.38
2023-03-18T16:15:51.408Z,66682.94
2023-03-18T16:20:57.440Z,66554.44
2023-03-18T16:26:02.237Z,66469.91
2023-03-18T16:31:07.116Z,66445.91
2023-03-18T16:36:25.214Z,66393.19
2023-03-18T16:41:29.699Z,66303.75
2023-03-18T16:46:34.120Z,66271.94
2023-03-18T16:51:41.356Z,66212.41
2023-03-18T16:56:45.484Z,66165.25
2023-03-18T17:01:49.610Z,66159.34
2023-03-18T17:06:57.998Z,66162.13
2023-03-18T17:12:07.618Z,66146.03
2023-03-18T17:17:19.267Z,66147.03
2023-03-18T17:22:30.602Z,66095.16
2023-03-18T17:27:40.914Z,66070.53
2023-03-18T17:32:47.779Z,66141.50
2023-03-18T17:37:54.817Z,66176.03
2023-03-18T17:42:59.129Z,66193.03
2023-03-18T17:48:15.946Z,66250.50
2023-03-18T17:53:35.405Z,66199.63
2023-03-18T17:58:44.992Z,66195.25
2023-03-18T18:03:49.736Z,66195.88
2023-03-18T18:08:59.143Z,66226.34
2023-03-18T18:14:13.254Z,66159.88
2023-03-18T18:19:17.654Z,66200.16
2023-03-18T18:24:24.864Z,66122.81
2023-03-18T18:29:31.427Z,66186.59
2023-03-18T18:34:36.354Z,66193.22
2023-03-18T18:39:42.690Z,66187.75
2023-03-18T18:44:47.286Z,66146.41
2023-03-18T18:49:52.070Z,66161.59
2023-03-18T18:54:58.058Z,66112.03
2023-03-18T19:00:02.384Z,66092.41
2023-03-18T19:05:08.218Z,66067.84
2023-03-18T19:10:15.988Z,66051.25
2023-03-18T19:15:21.707Z,66103.09
2023-03-18T19:20:30.022Z,66132.56
2023-03-18T19:25:35.809Z,66103.09
2023-03-18T19:30:40.058Z,66136.75
2023-03-18T19:35:45.118Z,66094.44
2023-03-18T19:40:52.924Z,66027.16
2023-03-18T19:45:57.235Z,66136.75
2023-03-18T19:51:01.513Z,66095.06
2023-03-18T19:56:17.641Z,66075.25
2023-03-18T20:01:23.054Z,66069.47
2023-03-18T20:06:27.697Z,66090.41
2023-03-18T20:11:33.493Z,66084.34
2023-03-18T20:16:37.697Z,66058.66
2023-03-18T20:21:42.323Z,66084.44
2023-03-18T20:26:48.103Z,66101.50
2023-03-18T20:31:52.283Z,66087.56
2023-03-18T20:36:56.504Z,66110.06
2023-03-18T20:42:02.046Z,66104.78
2023-03-18T20:47:06.497Z,66139.53
2023-03-18T20:52:24.412Z,66193.56
2023-03-18T20:57:30.292Z,66164.19
2023-03-18T21:02:35.137Z,66133.28
2023-03-18T21:07:39.889Z,66130.94
2023-03-18T21:12:46.014Z,66136.75
2023-03-18T21:17:50.543Z,66129.78
2023-03-18T21:22:56.246Z,66073.66
2023-03-18T21:28:02.230Z,66083.81
2023-03-18T21:33:18.835Z,66074.19
2023-03-18T21:38:22.987Z,66076.94
2023-03-18T21:43:34.085Z,66069.91
2023-03-18T21:48:38.354Z,66044.81
2023-03-18T21:53:42.526Z,66113.63
2023-03-18T21:58:48.309Z,66114.88
2023-03-18T22:03:53.969Z,66107.28
2023-03-18T22:08:58.873Z,66130.94
2023-03-18T22:14:04.923Z,66117.56
2023-03-18T22:19:08.954Z,66114.88
2023-03-18T22:24:15.718Z,66106.31
2023-03-18T22:29:24.257Z,66135.41
2023-03-18T22:34:28.423Z,66089.69
2023-03-18T22:39:32.394Z,66009.28
2023-03-18T22:44:38.235Z,65898.09
2023-03-18T22:49:42.384Z,65944.63
2023-03-18T22:54:46.739Z,65951.59
2023-03-18T22:59:52.591Z,65885.16
2023-03-18T23:04:57.620Z,65837.06
2023-03-18T23:10:04.794Z,65812.56
2023-03-18T23:15:17.237Z,65809.91
2023-03-18T23:20:21.541Z,65834.50
2023-03-18T23:25:26.002Z,65834.28
2023-03-18T23:30:32.258Z,65813.00
2023-03-18T23:35:37.659Z,65810.44
2023-03-18T23:40:41.991Z,65811.41
2023-03-18T23:45:47.556Z,65845.09
2023-03-18T23:50:51.641Z,65820.41
2023-03-18T23:55:56.008Z,65892.66
